Insignia — V7DM2 — position and weather

sailwx.info

Track history (hours):
 
Tides and Currents Weather Stations Pressure Air Temp Water Temp Dewpoint Dewpoint Depression Visibility Wind Speed Wind Dir Waves Ship Positions

Insignia

Last reported at 2017-Dec-09 02:24 UTC. Time now 2017-Dec-14 06:28 UTC.
Position N 25°19' W 080°04'.

Length 180 m; draft 5.9 m.

Type: Passenger vessel. MMSI: 538001663.

Date/timePositionNaut miles runAvg speedWind from/ knotsBaromVisibWave heightAir tempDewpointWater temp
2017-Dec-09 02:24N 25°19' W 080°04'6 9.7
2017-Dec-09 01:47N 25°25' W 080°03'310.5
2017-Dec-09 01:30N 25°28' W 080°03'510.4
2017-Dec-09 01:00N 25°33' W 080°02'510.4
2017-Dec-09 00:30N 25°38' W 080°02'510.8
2017-Dec-09 00:00N 25°44' W 080°03'5 9.2
2017-Dec-08 23:30N 25°46' W 080°08'2 3.6
2017-Dec-08 22:59N 25°46' W 080°10'0 0.0
2017-Dec-08 22:29N 25°46' W 080°10'0 0.0
2017-Dec-08 21:59N 25°46' W 080°10'0 0.0
2017-Dec-08 21:29N 25°46' W 080°10'0 0.0
2017-Dec-08 20:59N 25°46' W 080°10'0 0.0
2017-Dec-08 20:29N 25°46' W 080°10'0 0.0
2017-Dec-08 19:59N 25°46' W 080°10'0 0.0
2017-Dec-08 19:26N 25°46' W 080°10'0 0.0
2017-Dec-08 18:56N 25°46' W 080°10'0 0.0
2017-Dec-08 18:26N 25°46' W 080°10'0 0.0
2017-Dec-08 17:59N 25°46' W 080°10'0 0.0
2017-Dec-08 17:26N 25°46' W 080°10'0 0.0
2017-Dec-08 16:53N 25°46' W 080°10'0 0.0
2017-Dec-08 16:26N 25°46' W 080°10'0 0.0
2017-Dec-08 15:56N 25°46' W 080°10'0 0.0
2017-Dec-08 15:25N 25°46' W 080°10'0 0.0
2017-Dec-08 14:49N 25°46' W 080°10'0 0.0
2017-Dec-08 14:28N 25°46' W 080°10'0 0.0
2017-Dec-08 13:58N 25°46' W 080°10'0 0.0
2017-Dec-08 13:28N 25°46' W 080°10'0 0.0
2017-Dec-08 12:58N 25°46' W 080°10'0 0.0
2017-Dec-08 12:28N 25°46' W 080°10'0 0.0
2017-Dec-08 12:00N 25°47' W 080°10'1 2.1
2017-Dec-08 11:31N 25°47' W 080°11'3 5.5
2017-Dec-08 11:00N 25°46' W 080°08'510.1
2017-Dec-08 10:30N 25°46' W 080°02'5 9.0
2017-Dec-08 10:00N 25°42' W 080°01'713.0
2017-Dec-08 09:30N 25°35' W 079°59'713.1
2017-Dec-08 09:00N 25°29' W 079°57'  
2017-Dec-02 01:27N 25°26' W 080°02'511.4
2017-Dec-02 01:00N 25°31' W 080°02'612.8
2017-Dec-02 00:30N 25°37' W 080°02'714.3
2017-Dec-02 00:00N 25°44' W 080°04'4 8.8
2017-Dec-01 23:30N 25°46' W 080°08'1 2.8
2017-Dec-01 22:59N 25°46' W 080°10'0 0.0
2017-Dec-01 22:29N 25°46' W 080°10'0 0.0
2017-Dec-01 21:59N 25°46' W 080°10'0 0.0
2017-Dec-01 21:29N 25°46' W 080°10'0 0.0
2017-Dec-01 20:59N 25°46' W 080°10'0 0.0
2017-Dec-01 20:29N 25°46' W 080°10'0 0.0
2017-Dec-01 19:59N 25°46' W 080°10'0 0.0
2017-Dec-01 19:29N 25°46' W 080°10'0 0.0
2017-Dec-01 18:59N 25°46' W 080°10'0 0.0
2017-Dec-01 18:29N 25°46' W 080°10'0 0.0
2017-Dec-01 17:59N 25°46' W 080°10'0 0.0
2017-Dec-01 17:26N 25°46' W 080°10'0 0.0
2017-Dec-01 16:59N 25°46' W 080°10'0 0.0
2017-Dec-01 16:29N 25°46' W 080°10'0 0.0
2017-Dec-01 15:59N 25°46' W 080°10'0 0.0
2017-Dec-01 15:29N 25°46' W 080°10'0 0.0
2017-Dec-01 14:59N 25°46' W 080°10'0 0.0
2017-Dec-01 14:29N 25°46' W 080°10'0 0.0
2017-Dec-01 13:59N 25°46' W 080°10'0 0.0
2017-Dec-01 13:29N 25°46' W 080°10'0 0.0
2017-Dec-01 12:59N 25°46' W 080°10'0 0.0
2017-Dec-01 12:29N 25°46' W 080°10'0 0.0
2017-Dec-01 11:59N 25°46' W 080°10'0 0.0
2017-Dec-01 11:31N 25°47' W 080°10'1 2.1
2017-Dec-01 11:00N 25°46' W 080°09'611.1
2017-Dec-01 10:30N 25°45' W 080°03'510.7
2017-Dec-01 10:00N 25°40' W 079°60'816.7
2017-Dec-01 09:30N 25°32' W 079°58'816.6
2017-Dec-01 09:00N 25°24' W 079°55'  
Track history (hours):
 
Tides and Currents Weather Stations Pressure Air Temp Water Temp Dewpoint Dewpoint Depression Visibility Wind Speed Wind Dir Waves Ship Positions

Insignia

Last reported at 2017-Dec-09 02:24 UTC. Time now 2017-Dec-14 06:28 UTC.
Position N 25°19' W 080°04'.

Length 180 m; draft 5.9 m.

Type: Passenger vessel. MMSI: 538001663.

Date/timePositionNaut miles runAvg speedWind from/ knotsBaromVisibWave heightAir tempDewpointWater temp
2017-Dec-09 02:24N 25°19' W 080°04'6 9.7
2017-Dec-09 01:47N 25°25' W 080°03'310.5
2017-Dec-09 01:30N 25°28' W 080°03'510.4
2017-Dec-09 01:00N 25°33' W 080°02'510.4
2017-Dec-09 00:30N 25°38' W 080°02'510.8
2017-Dec-09 00:00N 25°44' W 080°03'5 9.2
2017-Dec-08 23:30N 25°46' W 080°08'2 3.6
2017-Dec-08 22:59N 25°46' W 080°10'0 0.0
2017-Dec-08 22:29N 25°46' W 080°10'0 0.0
2017-Dec-08 21:59N 25°46' W 080°10'0 0.0
2017-Dec-08 21:29N 25°46' W 080°10'0 0.0
2017-Dec-08 20:59N 25°46' W 080°10'0 0.0
2017-Dec-08 20:29N 25°46' W 080°10'0 0.0
2017-Dec-08 19:59N 25°46' W 080°10'0 0.0
2017-Dec-08 19:26N 25°46' W 080°10'0 0.0
2017-Dec-08 18:56N 25°46' W 080°10'0 0.0
2017-Dec-08 18:26N 25°46' W 080°10'0 0.0
2017-Dec-08 17:59N 25°46' W 080°10'0 0.0
2017-Dec-08 17:26N 25°46' W 080°10'0 0.0
2017-Dec-08 16:53N 25°46' W 080°10'0 0.0
2017-Dec-08 16:26N 25°46' W 080°10'0 0.0
2017-Dec-08 15:56N 25°46' W 080°10'0 0.0
2017-Dec-08 15:25N 25°46' W 080°10'0 0.0
2017-Dec-08 14:49N 25°46' W 080°10'0 0.0
2017-Dec-08 14:28N 25°46' W 080°10'0 0.0
2017-Dec-08 13:58N 25°46' W 080°10'0 0.0
2017-Dec-08 13:28N 25°46' W 080°10'0 0.0
2017-Dec-08 12:58N 25°46' W 080°10'0 0.0
2017-Dec-08 12:28N 25°46' W 080°10'0 0.0
2017-Dec-08 12:00N 25°47' W 080°10'1 2.1
2017-Dec-08 11:31N 25°47' W 080°11'3 5.5
2017-Dec-08 11:00N 25°46' W 080°08'510.1
2017-Dec-08 10:30N 25°46' W 080°02'5 9.0
2017-Dec-08 10:00N 25°42' W 080°01'713.0
2017-Dec-08 09:30N 25°35' W 079°59'713.1
2017-Dec-08 09:00N 25°29' W 079°57'  
2017-Dec-02 01:27N 25°26' W 080°02'511.4
2017-Dec-02 01:00N 25°31' W 080°02'612.8
2017-Dec-02 00:30N 25°37' W 080°02'714.3
2017-Dec-02 00:00N 25°44' W 080°04'4 8.8
2017-Dec-01 23:30N 25°46' W 080°08'1 2.8
2017-Dec-01 22:59N 25°46' W 080°10'0 0.0
2017-Dec-01 22:29N 25°46' W 080°10'0 0.0
2017-Dec-01 21:59N 25°46' W 080°10'0 0.0
2017-Dec-01 21:29N 25°46' W 080°10'0 0.0
2017-Dec-01 20:59N 25°46' W 080°10'0 0.0
2017-Dec-01 20:29N 25°46' W 080°10'0 0.0
2017-Dec-01 19:59N 25°46' W 080°10'0 0.0
2017-Dec-01 19:29N 25°46' W 080°10'0 0.0
2017-Dec-01 18:59N 25°46' W 080°10'0 0.0
2017-Dec-01 18:29N 25°46' W 080°10'0 0.0
2017-Dec-01 17:59N 25°46' W 080°10'0 0.0
2017-Dec-01 17:26N 25°46' W 080°10'0 0.0
2017-Dec-01 16:59N 25°46' W 080°10'0 0.0
2017-Dec-01 16:29N 25°46' W 080°10'0 0.0
2017-Dec-01 15:59N 25°46' W 080°10'0 0.0
2017-Dec-01 15:29N 25°46' W 080°10'0 0.0
2017-Dec-01 14:59N 25°46' W 080°10'0 0.0
2017-Dec-01 14:29N 25°46' W 080°10'0 0.0
2017-Dec-01 13:59N 25°46' W 080°10'0 0.0
2017-Dec-01 13:29N 25°46' W 080°10'0 0.0
2017-Dec-01 12:59N 25°46' W 080°10'0 0.0
2017-Dec-01 12:29N 25°46' W 080°10'0 0.0
2017-Dec-01 11:59N 25°46' W 080°10'0 0.0
2017-Dec-01 11:31N 25°47' W 080°10'1 2.1
2017-Dec-01 11:00N 25°46' W 080°09'611.1
2017-Dec-01 10:30N 25°45' W 080°03'510.7
2017-Dec-01 10:00N 25°40' W 079°60'816.7
2017-Dec-01 09:30N 25°32' W 079°58'816.6
2017-Dec-01 09:00N 25°24' W 079°55'  

Dump ship's entire track history